createdAt,value
2019-05-15T00:00:05.947Z,102767.56
2019-05-15T00:00:40.796Z,102767.98
2019-05-15T00:01:08.463Z,102761.26
2019-05-15T00:01:32.721Z,102766.20
2019-05-15T00:01:58.407Z,102766.27
2019-05-15T00:02:23.420Z,102765.39
2019-05-15T00:02:48.637Z,102766.36
2019-05-15T00:03:14.593Z,102765.95
2019-05-15T00:03:41.188Z,102764.59
2019-05-15T00:04:06.022Z,102766.42
2019-05-15T00:04:31.264Z,102768.25
2019-05-15T00:04:58.394Z,102766.48
2019-05-15T00:05:23.187Z,102764.75
2019-05-15T00:05:49.613Z,102766.01
2019-05-15T00:06:15.331Z,102765.13
2019-05-15T00:06:40.540Z,102767.83
2019-05-15T00:07:05.742Z,102764.27
2019-05-15T00:07:30.408Z,102765.22
2019-05-15T00:07:55.614Z,102765.69
2019-05-15T00:08:20.871Z,102766.98
2019-05-15T00:08:48.048Z,102767.45
2019-05-15T00:09:12.930Z,102763.39
2019-05-15T00:09:41.774Z,102764.33
2019-05-15T00:10:08.772Z,102767.05
2019-05-15T00:10:33.764Z,102764.33
2019-05-15T00:10:58.845Z,102760.27
2019-05-15T00:11:24.257Z,102763.92
2019-05-15T00:11:49.288Z,102765.28
2019-05-15T00:12:15.356Z,102766.63
2019-05-15T00:12:40.196Z,102766.22
2019-05-15T00:13:05.393Z,102764.86
2019-05-15T00:13:30.775Z,102764.86
2019-05-15T00:13:55.898Z,102757.70
2019-05-15T00:14:20.734Z,102759.53
2019-05-15T00:14:48.308Z,102764.95
2019-05-15T00:15:14.562Z,102758.65
2019-05-15T00:15:40.479Z,102758.17
2019-05-15T00:16:05.354Z,102762.72
2019-05-15T00:16:30.531Z,102760.00
2019-05-15T00:16:55.730Z,102764.55
2019-05-15T00:17:20.948Z,102757.35
2019-05-15T00:17:48.334Z,102766.37
2019-05-15T00:18:12.550Z,102759.17
2019-05-15T00:18:38.969Z,102760.53
2019-05-15T00:19:04.460Z,102756.09
2019-05-15T00:19:29.765Z,102757.45
2019-05-15T00:19:54.668Z,102756.09
2019-05-15T00:20:20.342Z,102757.45
2019-05-15T00:20:49.364Z,102753.84
2019-05-15T00:21:12.506Z,102754.32
2019-05-15T00:21:38.254Z,102753.44
2019-05-15T00:22:03.725Z,102753.91
2019-05-15T00:22:29.155Z,102754.00
2019-05-15T00:22:54.548Z,102756.62
2019-05-15T00:23:19.364Z,102750.82
2019-05-15T00:23:44.574Z,102749.46
2019-05-15T00:24:13.204Z,102753.53
2019-05-15T00:24:38.145Z,102753.91
2019-05-15T00:25:03.272Z,102753.02
2019-05-15T00:25:29.192Z,102756.23
2019-05-15T00:25:54.438Z,102760.78
2019-05-15T00:26:19.658Z,102759.89
2019-05-15T00:26:44.323Z,102754.95
2019-05-15T00:27:09.512Z,102762.19
2019-05-15T00:27:34.698Z,102761.30
2019-05-15T00:27:59.891Z,102759.53
2019-05-15T00:28:25.082Z,102756.77
2019-05-15T00:28:49.727Z,102755.09
2019-05-15T00:29:17.398Z,102756.92
2019-05-15T00:29:42.324Z,102763.22
2019-05-15T00:30:10.380Z,102763.70
2019-05-15T00:30:35.214Z,102757.86
2019-05-15T00:31:00.215Z,102759.69
2019-05-15T00:31:25.436Z,102752.02
2019-05-15T00:31:50.653Z,102754.36
2019-05-15T00:32:15.484Z,102760.62
2019-05-15T00:32:40.711Z,102758.02
2019-05-15T00:33:09.123Z,102753.95
2019-05-15T00:33:34.592Z,102749.05
2019-05-15T00:33:59.424Z,102750.97
2019-05-15T00:34:24.633Z,102752.73
2019-05-15T00:34:49.791Z,102751.86
2019-05-15T00:35:15.180Z,102750.97
2019-05-15T00:35:40.365Z,102751.44
2019-05-15T00:36:05.283Z,102750.09
2019-05-15T00:36:30.457Z,102754.63
2019-05-15T00:36:55.645Z,102751.91
2019-05-15T00:37:20.701Z,102752.86
2019-05-15T00:37:45.499Z,102748.79
2019-05-15T00:38:10.678Z,102747.91
2019-05-15T00:38:35.853Z,102748.00
2019-05-15T00:39:01.060Z,102748.41
2019-05-15T00:39:28.262Z,102749.77
2019-05-15T00:39:52.634Z,102746.64
2019-05-15T00:40:18.389Z,102746.23
2019-05-15T00:40:43.811Z,102745.76
2019-05-15T00:41:09.622Z,102747.58
2019-05-15T00:41:47.560Z,102747.17
2019-05-15T00:42:01.233Z,102745.81
2019-05-15T00:42:28.356Z,102745.81
2019-05-15T00:42:53.337Z,102748.53
2019-05-15T00:43:18.370Z,102745.44
2019-05-15T00:43:43.532Z,102748.14
2019-05-15T00:44:09.199Z,102745.02
2019-05-15T00:44:34.566Z,102743.20
2019-05-15T00:44:59.375Z,102746.84
2019-05-15T00:45:24.599Z,102747.31
2019-05-15T00:45:49.752Z,102745.96
2019-05-15T00:46:15.387Z,102744.70
2019-05-15T00:46:40.599Z,102744.70
2019-05-15T00:47:05.397Z,102742.45
2019-05-15T00:47:30.563Z,102746.05
2019-05-15T00:47:57.874Z,102747.88
2019-05-15T00:48:22.449Z,102745.17
2019-05-15T00:48:48.805Z,102743.81
2019-05-15T00:49:14.221Z,102743.41
2019-05-15T00:49:39.431Z,102741.63
2019-05-15T00:50:08.933Z,102742.58
2019-05-15T00:50:33.463Z,102744.34
2019-05-15T00:50:59.011Z,102746.64
2019-05-15T00:51:24.305Z,102742.58
2019-05-15T00:51:49.491Z,102748.50
2019-05-15T00:52:14.872Z,102740.84
2019-05-15T00:52:40.621Z,102745.37
2019-05-15T00:53:05.881Z,102745.84
2019-05-15T00:53:31.027Z,102750.33
2019-05-15T00:53:55.847Z,102738.66
2019-05-15T00:54:20.864Z,102740.42
2019-05-15T00:54:48.263Z,102743.61
2019-05-15T00:55:12.931Z,102735.53
2019-05-15T00:55:39.335Z,102739.59
2019-05-15T00:56:04.934Z,102735.53
2019-05-15T00:56:29.935Z,102742.81
2019-05-15T00:56:57.916Z,102733.80
2019-05-15T00:57:22.849Z,102739.22
2019-05-15T00:57:48.624Z,102738.24
2019-05-15T00:58:14.053Z,102741.10
2019-05-15T00:59:23.176Z,102739.13
2019-05-15T00:59:38.999Z,102741.10
2019-05-15T01:00:08.074Z,102741.19
2019-05-15T01:00:43.815Z,102741.19
2019-05-15T01:01:08.715Z,102741.66
2019-05-15T01:01:33.723Z,102743.02
2019-05-15T01:01:59.451Z,102741.25
2019-05-15T01:02:24.864Z,102743.07
2019-05-15T01:02:49.688Z,102742.19
2019-05-15T01:03:14.860Z,102739.06
2019-05-15T01:03:39.850Z,102737.71
2019-05-15T01:04:07.897Z,102741.39
2019-05-15T01:04:32.019Z,102741.77
2019-05-15T01:04:58.557Z,102740.42
2019-05-15T01:05:23.779Z,102745.84
2019-05-15T01:05:48.865Z,102746.81
2019-05-15T01:06:14.079Z,102745.84
2019-05-15T01:06:39.274Z,102744.10
2019-05-15T01:07:04.398Z,102742.75
2019-05-15T01:07:33.242Z,102737.80
2019-05-15T01:07:58.645Z,102736.97
2019-05-15T01:08:23.914Z,102739.68
2019-05-15T01:08:49.125Z,102738.27
2019-05-15T01:09:14.441Z,102733.80
2019-05-15T01:09:39.284Z,102742.33
2019-05-15T01:10:05.370Z,102740.09
2019-05-15T01:10:30.547Z,102738.73
2019-05-15T01:10:58.218Z,102737.39
2019-05-15T01:11:23.230Z,102736.91
2019-05-15T01:11:48.898Z,102737.80
2019-05-15T01:12:14.277Z,102742.28
2019-05-15T01:12:39.501Z,102737.33
2019-05-15T01:13:04.265Z,102735.98
2019-05-15T01:13:29.821Z,102733.27
2019-05-15T01:13:54.994Z,102736.86
2019-05-15T01:14:19.983Z,102736.86
2019-05-15T01:14:44.825Z,102733.27
2019-05-15T01:15:09.994Z,102736.86
2019-05-15T01:15:35.171Z,102732.30
2019-05-15T01:16:00.370Z,102733.64
2019-05-15T01:16:27.970Z,102736.77
2019-05-15T01:16:53.106Z,102735.42
2019-05-15T01:17:18.543Z,102731.35
2019-05-15T01:17:43.846Z,102734.95
2019-05-15T01:18:09.289Z,102735.83
2019-05-15T01:18:34.918Z,102735.36
2019-05-15T01:19:00.121Z,102737.19
2019-05-15T01:19:25.304Z,102737.19
2019-05-15T01:19:50.142Z,102734.00
2019-05-15T01:20:15.381Z,102732.70
2019-05-15T01:20:40.396Z,102735.42
2019-05-15T01:21:08.185Z,102735.88
2019-05-15T01:21:32.118Z,102735.00
2019-05-15T01:21:58.710Z,102735.88
2019-05-15T01:22:24.050Z,102733.64
2019-05-15T01:22:49.050Z,102736.77
2019-05-15T01:23:14.218Z,102733.64
2019-05-15T01:23:39.412Z,102733.17
2019-05-15T01:24:04.608Z,102735.00
2019-05-15T01:24:29.805Z,102736.36
2019-05-15T01:24:54.446Z,102737.71
2019-05-15T01:25:19.648Z,102735.00
2019-05-15T01:25:44.854Z,102737.33
2019-05-15T01:26:10.027Z,102728.73
2019-05-15T01:26:35.216Z,102730.56
2019-05-15T01:26:59.831Z,102733.27
2019-05-15T01:27:25.009Z,102731.44
2019-05-15T01:27:50.210Z,102733.27
2019-05-15T01:28:15.386Z,102733.27
2019-05-15T01:28:40.554Z,102732.38
2019-05-15T01:29:05.245Z,102730.14
2019-05-15T01:29:40.525Z,102730.14
2019-05-15T01:29:58.163Z,102730.14
2019-05-15T01:30:23.551Z,102730.14
2019-05-15T01:30:48.793Z,102726.08
2019-05-15T01:31:18.920Z,102723.42
2019-05-15T01:31:43.910Z,102727.49
2019-05-15T01:32:09.085Z,102734.27
2019-05-15T01:32:34.337Z,102725.28
2019-05-15T01:32:59.542Z,102728.84
2019-05-15T01:33:24.560Z,102728.94
2019-05-15T01:33:49.736Z,102728.94
2019-05-15T01:34:14.628Z,102728.47
2019-05-15T01:34:39.830Z,102728.94
2019-05-15T01:35:05.665Z,102724.87
2019-05-15T01:35:30.646Z,102726.70
2019-05-15T01:35:55.473Z,102728.05
2019-05-15T01:36:20.718Z,102726.75
2019-05-15T01:36:45.884Z,102727.64
2019-05-15T01:37:11.052Z,102729.46
2019-05-15T01:37:36.064Z,102729.46
2019-05-15T01:38:00.843Z,102721.80
2019-05-15T01:38:27.917Z,102723.66
2019-05-15T01:38:52.940Z,102722.31
2019-05-15T01:39:18.593Z,102719.19
2019-05-15T01:39:43.435Z,102720.95
2019-05-15T01:40:08.986Z,102723.25
2019-05-15T01:40:34.446Z,102724.61
2019-05-15T01:40:59.630Z,102723.69
2019-05-15T01:41:24.516Z,102730.02
2019-05-15T01:41:49.818Z,102724.61
2019-05-15T01:42:15.116Z,102716.92
2019-05-15T01:42:40.290Z,102723.69
2019-05-15T01:43:05.629Z,102726.87
2019-05-15T01:43:30.430Z,102725.52
2019-05-15T01:43:57.962Z,102722.39
2019-05-15T01:44:22.330Z,102722.39
2019-05-15T01:44:48.474Z,102723.74
2019-05-15T01:45:14.136Z,102723.74
2019-05-15T01:45:39.720Z,102728.78
2019-05-15T01:46:04.777Z,102725.66
2019-05-15T01:46:30.000Z,102724.30
2019-05-15T01:46:54.846Z,102724.30
2019-05-15T01:47:20.512Z,102727.48
2019-05-15T01:47:47.894Z,102729.30
2019-05-15T01:48:12.371Z,102723.47
2019-05-15T01:48:38.846Z,102719.88
2019-05-15T01:49:04.460Z,102728.89
2019-05-15T01:49:29.615Z,102723.09
2019-05-15T01:49:55.809Z,102726.66
2019-05-15T01:50:21.112Z,102723.09
2019-05-15T01:50:49.033Z,102723.15
2019-05-15T01:51:14.520Z,102725.80
2019-05-15T01:51:39.744Z,102728.09
2019-05-15T01:52:04.543Z,102730.33
2019-05-15T01:52:30.112Z,102722.27
2019-05-15T01:52:55.327Z,102731.74
2019-05-15T01:53:20.506Z,102720.50
2019-05-15T01:53:47.872Z,102730.39
2019-05-15T01:54:12.264Z,102729.09
2019-05-15T01:54:38.378Z,102724.17
2019-05-15T01:55:03.842Z,102728.63
2019-05-15T01:55:29.008Z,102723.30
2019-05-15T01:55:53.853Z,102726.89
2019-05-15T01:56:19.077Z,102728.70
2019-05-15T01:56:44.056Z,102727.35
2019-05-15T01:57:09.451Z,102726.94
2019-05-15T01:57:34.684Z,102729.17
2019-05-15T01:57:59.512Z,102730.53
2019-05-15T01:58:24.706Z,102729.17
2019-05-15T01:58:49.724Z,102726.05
2019-05-15T01:59:14.989Z,102728.77
2019-05-15T01:59:53.676Z,102724.28
2019-05-15T02:00:10.975Z,102726.05
2019-05-15T02:00:36.181Z,102729.23
2019-05-15T02:01:01.327Z,102725.64
2019-05-15T02:01:28.351Z,102726.14
2019-05-15T02:01:53.194Z,102731.05
2019-05-15T02:02:18.761Z,102727.97
2019-05-15T02:02:44.357Z,102727.97
2019-05-15T02:03:10.155Z,102723.49
2019-05-15T02:03:35.019Z,102723.49
2019-05-15T02:04:00.207Z,102725.31
2019-05-15T02:04:25.496Z,102728.02
2019-05-15T02:04:50.679Z,102729.84
2019-05-15T02:05:15.281Z,102726.72
2019-05-15T02:05:40.578Z,102725.37
2019-05-15T02:06:08.013Z,102729.84
2019-05-15T02:06:32.634Z,102728.08
2019-05-15T02:06:58.895Z,102729.43
2019-05-15T02:07:24.086Z,102730.41
2019-05-15T02:07:49.254Z,102728.58
2019-05-15T02:08:14.858Z,102733.11
2019-05-15T02:08:39.672Z,102731.75
2019-05-15T02:09:08.344Z,102734.47
2019-05-15T02:09:33.538Z,102736.76
2019-05-15T02:09:58.722Z,102732.70
2019-05-15T02:10:23.546Z,102730.45
2019-05-15T02:10:49.321Z,102734.94
2019-05-15T02:11:18.060Z,102735.45
2019-05-15T02:11:42.997Z,102731.40
2019-05-15T02:12:08.678Z,102731.40
2019-05-15T02:12:34.083Z,102730.52
2019-05-15T02:12:59.236Z,102729.16
2019-05-15T02:13:24.402Z,102732.37
2019-05-15T02:13:49.037Z,102733.72
2019-05-15T02:14:14.864Z,102731.48
2019-05-15T02:14:40.111Z,102732.84
2019-05-15T02:15:08.581Z,102731.48
2019-05-15T02:15:33.521Z,102729.72
2019-05-15T02:15:58.940Z,102731.95
2019-05-15T02:16:24.291Z,102728.36
2019-05-15T02:16:49.453Z,102731.07
2019-05-15T02:17:14.468Z,102724.30
2019-05-15T02:17:39.652Z,102732.42
2019-05-15T02:18:04.631Z,102729.30
2019-05-15T02:18:29.803Z,102728.83
2019-05-15T02:18:54.975Z,102728.42
2019-05-15T02:19:19.795Z,102729.30
2019-05-15T02:19:44.971Z,102721.17
2019-05-15T02:20:09.971Z,102729.30
2019-05-15T02:20:35.131Z,102727.95
2019-05-15T02:21:00.323Z,102727.95
2019-05-15T02:21:25.165Z,102727.95
2019-05-15T02:21:50.345Z,102727.06
2019-05-15T02:22:15.403Z,102727.16
2019-05-15T02:22:42.540Z,102732.01
2019-05-15T02:23:11.415Z,102726.73
2019-05-15T02:23:34.081Z,102728.89
2019-05-15T02:23:59.234Z,102730.66
2019-05-15T02:24:24.237Z,102727.16
2019-05-15T02:24:49.107Z,102733.83
2019-05-15T02:25:14.826Z,102730.33
2019-05-15T02:25:40.001Z,102728.50
2019-05-15T02:26:05.229Z,102728.56
2019-05-15T02:26:30.071Z,102730.80
2019-05-15T02:26:55.292Z,102730.80
2019-05-15T02:27:20.505Z,102728.56
2019-05-15T02:27:47.934Z,102728.56
2019-05-15T02:28:12.210Z,102728.09
2019-05-15T02:28:38.413Z,102733.09
2019-05-15T02:29:03.910Z,102729.91
2019-05-15T02:29:29.077Z,102730.38
2019-05-15T02:30:02.538Z,102727.20
2019-05-15T02:30:28.582Z,102733.09
2019-05-15T02:30:50.358Z,102734.02
2019-05-15T02:31:14.852Z,102729.97
2019-05-15T02:31:39.680Z,102732.67
2019-05-15T02:32:05.381Z,102730.47
2019-05-15T02:32:30.756Z,102728.23
2019-05-15T02:32:58.707Z,102732.30
2019-05-15T02:33:22.256Z,102727.77
2019-05-15T02:33:49.800Z,102733.23
2019-05-15T02:34:14.800Z,102733.64
2019-05-15T02:34:40.033Z,102730.52
2019-05-15T02:35:05.728Z,102730.52
2019-05-15T02:35:30.898Z,102734.58
2019-05-15T02:35:56.073Z,102731.46
2019-05-15T02:36:21.250Z,102730.11
2019-05-15T02:36:49.247Z,102727.87
2019-05-15T02:37:12.766Z,102730.58
2019-05-15T02:37:40.963Z,102735.11
2019-05-15T02:38:04.847Z,102731.46
2019-05-15T02:38:30.243Z,102732.40
2019-05-15T02:38:55.053Z,102728.34
2019-05-15T02:39:20.041Z,102733.75
2019-05-15T02:39:45.237Z,102735.61
2019-05-15T02:40:10.869Z,102730.66
2019-05-15T02:40:35.702Z,102734.72
2019-05-15T02:41:00.892Z,102733.37
2019-05-15T02:41:25.881Z,102733.37
2019-05-15T02:41:51.067Z,102729.78
2019-05-15T02:42:19.038Z,102732.95
2019-05-15T02:42:42.776Z,102727.12
2019-05-15T02:43:10.019Z,102727.54
2019-05-15T02:43:34.690Z,102728.48
2019-05-15T02:43:59.914Z,102725.77
2019-05-15T02:44:24.702Z,102728.48
2019-05-15T02:44:50.224Z,102728.95
2019-05-15T02:45:15.582Z,102728.95
2019-05-15T02:45:42.064Z,102733.89
2019-05-15T02:46:10.042Z,102729.83
2019-05-15T02:46:34.016Z,102734.36
2019-05-15T02:46:59.215Z,102734.36
2019-05-15T02:47:24.418Z,102734.86
2019-05-15T02:47:49.457Z,102742.02
2019-05-15T02:48:14.897Z,102736.22
2019-05-15T02:48:40.951Z,102733.09
2019-05-15T02:49:08.860Z,102733.09
2019-05-15T02:49:33.037Z,102737.57
2019-05-15T02:49:59.328Z,102736.27
2019-05-15T02:50:24.717Z,102731.74
2019-05-15T02:50:50.344Z,102738.51
2019-05-15T02:51:15.274Z,102741.22
2019-05-15T02:51:40.486Z,102734.03
2019-05-15T02:52:05.489Z,102735.38
2019-05-15T02:52:30.692Z,102735.38
2019-05-15T02:52:56.014Z,102740.80
2019-05-15T02:53:21.287Z,102739.91
2019-05-15T02:53:49.770Z,102735.94
2019-05-15T02:54:13.169Z,102736.33
2019-05-15T02:54:40.071Z,102732.27
2019-05-15T02:55:09.158Z,102731.87
2019-05-15T02:55:33.366Z,102734.09
2019-05-15T02:56:00.199Z,102735.06
2019-05-15T02:56:25.171Z,102735.94
2019-05-15T02:56:50.360Z,102731.00
2019-05-15T02:57:18.580Z,102733.70
2019-05-15T02:57:42.447Z,102735.06
2019-05-15T02:58:09.961Z,102738.23
2019-05-15T02:58:34.068Z,102743.64
2019-05-15T02:58:59.973Z,102744.11
2019-05-15T02:59:28.836Z,102736.94
2019-05-15T02:59:51.879Z,102741.41
2019-05-15T03:00:35.309Z,102737.81
2019-05-15T03:00:52.089Z,102739.17
2019-05-15T03:01:10.657Z,102739.64
2019-05-15T03:01:35.491Z,102736.94
2019-05-15T03:02:00.665Z,102736.52
2019-05-15T03:02:28.462Z,102741.46
2019-05-15T03:02:52.552Z,102737.40
2019-05-15T03:03:20.138Z,102736.52
2019-05-15T03:03:44.276Z,102733.89
2019-05-15T03:04:09.557Z,102734.31
2019-05-15T03:04:34.764Z,102730.25
2019-05-15T03:04:59.691Z,102731.19
2019-05-15T03:05:25.104Z,102730.30
2019-05-15T03:05:50.278Z,102730.30
2019-05-15T03:06:15.477Z,102731.19
2019-05-15T03:06:40.667Z,102729.84
2019-05-15T03:07:05.281Z,102735.72
2019-05-15T03:07:30.470Z,102733.89
2019-05-15T03:07:59.092Z,102732.55
2019-05-15T03:08:22.595Z,102732.55
2019-05-15T03:08:49.533Z,102732.55
2019-05-15T03:09:14.849Z,102729.00
2019-05-15T03:09:40.161Z,102724.01
2019-05-15T03:10:05.591Z,102728.95
2019-05-15T03:10:30.392Z,102730.30
2019-05-15T03:10:58.939Z,102731.23
2019-05-15T03:11:22.339Z,102725.83
2019-05-15T03:11:49.372Z,102724.01
2019-05-15T03:12:14.685Z,102725.83
2019-05-15T03:12:41.038Z,102729.42
2019-05-15T03:13:09.351Z,102729.00
2019-05-15T03:13:33.126Z,102731.71
2019-05-15T03:13:59.261Z,102731.23
2019-05-15T03:14:24.993Z,102727.27
2019-05-15T03:14:50.188Z,102729.00
2019-05-15T03:15:15.537Z,102725.03
2019-05-15T03:15:40.895Z,102733.62
2019-05-15T03:16:09.329Z,102735.39
2019-05-15T03:16:33.129Z,102729.56
2019-05-15T03:16:59.607Z,102730.91
2019-05-15T03:17:24.725Z,102729.14
2019-05-15T03:17:49.716Z,102733.67
2019-05-15T03:18:15.029Z,102733.20
2019-05-15T03:18:40.826Z,102730.49
2019-05-15T03:19:05.613Z,102732.31
2019-05-15T03:19:30.808Z,102731.84
2019-05-15T03:19:58.913Z,102735.91
2019-05-15T03:20:22.696Z,102736.38
2019-05-15T03:20:50.056Z,102737.27
2019-05-15T03:21:15.037Z,102728.26
2019-05-15T03:21:40.210Z,102729.70
2019-05-15T03:22:05.229Z,102732.78
2019-05-15T03:22:30.026Z,102733.75
2019-05-15T03:22:55.198Z,102734.14
2019-05-15T03:23:22.191Z,102729.70
2019-05-15T03:23:50.543Z,102726.99
2019-05-15T03:24:14.476Z,102732.41
2019-05-15T03:24:39.934Z,102728.81
2019-05-15T03:25:10.512Z,102726.99
2019-05-15T03:25:35.431Z,102723.88
2019-05-15T03:26:04.403Z,102728.81
2019-05-15T03:26:29.896Z,102723.92
2019-05-15T03:26:54.290Z,102724.80
2019-05-15T03:27:19.877Z,102727.52
2019-05-15T03:27:44.852Z,102727.52
2019-05-15T03:28:10.706Z,102723.45
2019-05-15T03:28:38.989Z,102727.09
2019-05-15T03:29:03.035Z,102724.39
2019-05-15T03:29:29.110Z,102723.54
2019-05-15T03:29:54.596Z,102720.41
2019-05-15T03:30:21.865Z,102719.06
2019-05-15T03:31:31.053Z,102723.12
2019-05-15T03:31:58.388Z,102721.30
2019-05-15T03:32:22.994Z,102723.12
2019-05-15T03:32:43.671Z,102724.94
2019-05-15T03:33:03.811Z,102721.36
2019-05-15T03:33:35.229Z,102720.47
2019-05-15T03:33:55.061Z,102723.59
2019-05-15T03:34:28.415Z,102717.34
2019-05-15T03:34:55.065Z,102723.17
2019-05-15T03:35:15.782Z,102723.64
2019-05-15T03:35:43.577Z,102719.20
2019-05-15T03:36:13.171Z,102719.67
2019-05-15T03:36:34.835Z,102719.67
2019-05-15T03:37:03.591Z,102722.76
2019-05-15T03:37:32.570Z,102717.44
2019-05-15T03:37:53.634Z,102720.61
2019-05-15T03:38:19.315Z,102718.78
2019-05-15T03:38:44.741Z,102716.55
2019-05-15T03:39:09.999Z,102718.37
2019-05-15T03:39:35.086Z,102712.48
2019-05-15T03:39:59.914Z,102716.12
2019-05-15T03:40:25.181Z,102716.12
2019-05-15T03:40:50.376Z,102717.48
2019-05-15T03:41:15.572Z,102715.72
2019-05-15T03:41:40.181Z,102713.42
2019-05-15T03:42:05.398Z,102713.89
2019-05-15T03:42:30.604Z,102718.84
2019-05-15T03:42:59.014Z,102718.84
2019-05-15T03:43:22.343Z,102716.59
2019-05-15T03:43:49.612Z,102716.12
2019-05-15T03:44:15.090Z,102719.77
2019-05-15T03:44:40.325Z,102715.25
2019-05-15T03:45:10.054Z,102714.78
2019-05-15T03:45:34.067Z,102718.84
2019-05-15T03:46:01.648Z,102718.92
2019-05-15T03:46:29.197Z,102714.36
2019-05-15T03:46:53.079Z,102715.72
2019-05-15T03:47:19.409Z,102709.45
2019-05-15T03:47:44.759Z,102716.22
2019-05-15T03:48:09.831Z,102712.16
2019-05-15T03:48:34.662Z,102713.98
2019-05-15T03:49:00.519Z,102711.27
2019-05-15T03:49:29.174Z,102712.62
2019-05-15T03:49:53.166Z,102714.92
2019-05-15T03:50:19.392Z,102713.09
2019-05-15T03:50:44.718Z,102710.39
2019-05-15T03:51:09.889Z,102712.21
2019-05-15T03:51:35.071Z,102715.80
2019-05-15T03:51:59.873Z,102710.86
2019-05-15T03:52:24.852Z,102707.27
2019-05-15T03:52:50.100Z,102709.04
2019-05-15T03:53:15.284Z,102712.21
2019-05-15T03:53:40.522Z,102714.03
2019-05-15T03:54:05.320Z,102717.63
2019-05-15T03:54:30.340Z,102714.50
2019-05-15T03:54:58.678Z,102713.15
2019-05-15T03:55:22.452Z,102709.09
2019-05-15T03:55:48.963Z,102709.55
2019-05-15T03:56:15.140Z,102710.03
2019-05-15T03:56:40.130Z,102709.55
2019-05-15T03:57:05.469Z,102710.91
2019-05-15T03:57:30.725Z,102705.97
2019-05-15T03:57:58.916Z,102710.03
2019-05-15T03:58:23.026Z,102712.27
2019-05-15T03:58:49.355Z,102710.03
2019-05-15T03:59:14.767Z,102705.59
2019-05-15T03:59:40.116Z,102708.67
2019-05-15T04:00:39.636Z,102709.45
2019-05-15T04:01:04.589Z,102709.64
2019-05-15T04:01:38.779Z,102704.70
2019-05-15T04:01:59.690Z,102705.17
2019-05-15T04:02:23.625Z,102707.87
2019-05-15T04:02:48.945Z,102711.00
2019-05-15T04:03:13.985Z,102710.63
2019-05-15T04:03:39.234Z,102707.45
2019-05-15T04:04:04.543Z,102701.63
2019-05-15T04:04:29.788Z,102705.69
2019-05-15T04:04:58.071Z,102705.30
2019-05-15T04:05:21.762Z,102703.95
2019-05-15T04:05:49.423Z,102706.24
2019-05-15T04:06:13.500Z,102700.41
2019-05-15T04:06:39.288Z,102702.70
2019-05-15T04:07:04.626Z,102699.61
2019-05-15T04:07:29.644Z,102701.44
2019-05-15T04:07:54.450Z,102701.91
2019-05-15T04:08:19.848Z,102696.05
2019-05-15T04:08:45.203Z,102700.10
2019-05-15T04:09:10.481Z,102701.07
2019-05-15T04:09:38.490Z,102704.63
2019-05-15T04:10:02.044Z,102697.95
2019-05-15T04:10:28.783Z,102702.89
2019-05-15T04:10:54.328Z,102697.95
2019-05-15T04:11:20.423Z,102705.59
2019-05-15T04:11:49.394Z,102704.71
2019-05-15T04:12:13.712Z,102706.53
2019-05-15T04:12:40.430Z,102709.23
2019-05-15T04:13:09.051Z,102706.53
2019-05-15T04:13:32.243Z,102707.00
2019-05-15T04:13:59.377Z,102705.64
2019-05-15T04:14:24.167Z,102707.83
2019-05-15T04:14:50.025Z,102708.30
2019-05-15T04:15:15.232Z,102709.56
2019-05-15T04:15:40.442Z,102709.09
2019-05-15T04:16:05.473Z,102712.26
2019-05-15T04:16:30.651Z,102714.49
2019-05-15T04:16:55.482Z,102713.52
2019-05-15T04:17:20.665Z,102713.52
2019-05-15T04:17:49.018Z,102704.47
2019-05-15T04:18:12.503Z,102717.06
2019-05-15T04:18:39.593Z,102710.72
2019-05-15T04:19:04.291Z,102713.80
2019-05-15T04:19:29.847Z,102709.28
2019-05-15T04:19:55.140Z,102709.28
2019-05-15T04:20:20.183Z,102715.98
2019-05-15T04:20:45.563Z,102707.41
2019-05-15T04:21:10.737Z,102705.97
2019-05-15T04:21:41.182Z,102707.73
2019-05-15T04:22:02.186Z,102709.97
2019-05-15T04:22:29.139Z,102713.98
2019-05-15T04:22:54.084Z,102687.83
2019-05-15T04:23:23.616Z,102707.55
2019-05-15T04:23:50.078Z,102703.02
2019-05-15T04:24:15.364Z,102708.30
2019-05-15T04:24:40.371Z,102703.77
2019-05-15T04:25:09.378Z,102704.65
2019-05-15T04:25:32.607Z,102709.51
2019-05-15T04:25:58.886Z,102714.40
2019-05-15T04:26:28.409Z,102713.46
2019-05-15T04:26:52.526Z,102707.08
2019-05-15T04:27:19.743Z,102712.91
2019-05-15T04:27:44.617Z,102703.44
2019-05-15T04:28:10.119Z,102707.44
2019-05-15T04:28:35.477Z,102706.55
2019-05-15T04:29:00.291Z,102706.97
2019-05-15T04:29:28.730Z,102707.82
2019-05-15T04:29:52.438Z,102702.30
2019-05-15T04:30:18.945Z,102702.30
2019-05-15T04:30:44.015Z,102704.92
2019-05-15T04:31:09.524Z,102708.45
2019-05-15T04:31:50.422Z,102705.66
2019-05-15T04:32:05.799Z,102703.33
2019-05-15T04:32:29.022Z,102703.23
2019-05-15T04:32:54.324Z,102704.53
2019-05-15T04:33:20.062Z,102708.45
2019-05-15T04:33:45.409Z,102706.16
2019-05-15T04:34:10.221Z,102703.87
2019-05-15T04:34:35.400Z,102706.02
2019-05-15T04:35:00.579Z,102706.43
2019-05-15T04:35:28.694Z,102707.64
2019-05-15T04:35:52.132Z,102712.53
2019-05-15T04:36:19.255Z,102712.86
2019-05-15T04:36:44.818Z,102706.98
2019-05-15T04:37:10.217Z,102712.24
2019-05-15T04:37:34.850Z,102701.83
2019-05-15T04:38:00.042Z,102711.63
2019-05-15T04:38:25.213Z,102711.98
2019-05-15T04:38:50.388Z,102711.91
2019-05-15T04:39:19.353Z,102712.27
2019-05-15T04:39:42.847Z,102710.34
2019-05-15T04:40:09.512Z,102712.03
2019-05-15T04:40:35.117Z,102714.67
2019-05-15T04:41:00.289Z,102718.72
2019-05-15T04:41:25.318Z,102709.15
2019-05-15T04:41:50.302Z,102708.16
2019-05-15T04:42:15.553Z,102712.54
2019-05-15T04:42:40.727Z,102708.89
2019-05-15T04:43:05.530Z,102709.68
2019-05-15T04:43:39.607Z,102708.74
2019-05-15T04:43:59.772Z,102706.83
2019-05-15T04:44:24.340Z,102707.66
2019-05-15T04:44:49.585Z,102707.59
2019-05-15T04:45:15.404Z,102708.86
2019-05-15T04:45:40.651Z,102705.63
2019-05-15T04:46:05.662Z,102703.70
2019-05-15T04:46:30.465Z,102710.47
2019-05-15T04:46:59.208Z,102704.12
2019-05-15T04:47:22.565Z,102705.88
2019-05-15T04:47:49.841Z,102706.27
2019-05-15T04:48:14.846Z,102708.50
2019-05-15T04:48:40.330Z,102707.56
2019-05-15T04:49:09.037Z,102708.86
2019-05-15T04:49:32.661Z,102709.23
2019-05-15T04:49:59.017Z,102713.30
2019-05-15T04:50:24.148Z,102703.44
2019-05-15T04:50:49.849Z,102711.47
2019-05-15T04:51:15.396Z,102701.98
2019-05-15T04:51:40.243Z,102707.87
2019-05-15T04:52:05.463Z,102707.82
2019-05-15T04:52:31.931Z,102708.70
2019-05-15T04:52:59.316Z,102707.77
2019-05-15T04:53:23.611Z,102707.77
2019-05-15T04:53:50.301Z,102701.94
2019-05-15T04:54:15.850Z,102703.61